sensor_id;sensor_type;location;lat;lon;timestamp;P1;durP1;ratioP1;P2;durP2;ratioP2
17790;SDS011;9019;48.132;-1.210;2023-09-19T00:01:35;6.50;;;3.60;;
17790;SDS011;9019;48.132;-1.210;2023-09-19T00:04:03;5.23;;;3.37;;
17790;SDS011;9019;48.132;-1.210;2023-09-19T00:06:34;6.90;;;3.40;;
17790;SDS011;9019;48.132;-1.210;2023-09-19T00:09:02;7.93;;;4.00;;
17790;SDS011;9019;48.132;-1.210;2023-09-19T00:11:29;6.50;;;3.30;;
17790;SDS011;9019;48.132;-1.210;2023-09-19T00:13:57;6.43;;;3.73;;
17790;SDS011;9019;48.132;-1.210;2023-09-19T00:16:25;7.17;;;4.03;;
17790;SDS011;9019;48.132;-1.210;2023-09-19T00:18:54;8.13;;;4.23;;
17790;SDS011;9019;48.132;-1.210;2023-09-19T00:21:21;7.30;;;3.83;;
17790;SDS011;9019;48.132;-1.210;2023-09-19T00:23:48;7.63;;;4.03;;
17790;SDS011;9019;48.132;-1.210;2023-09-19T00:26:16;7.93;;;4.10;;
17790;SDS011;9019;48.132;-1.210;2023-09-19T00:28:46;7.10;;;4.30;;
17790;SDS011;9019;48.132;-1.210;2023-09-19T00:31:13;7.93;;;4.43;;
17790;SDS011;9019;48.132;-1.210;2023-09-19T00:33:40;7.07;;;4.30;;
17790;SDS011;9019;48.132;-1.210;2023-09-19T00:36:09;6.93;;;4.43;;
17790;SDS011;9019;48.132;-1.210;2023-09-19T00:38:36;5.40;;;4.27;;
17790;SDS011;9019;48.132;-1.210;2023-09-19T00:41:03;6.77;;;4.60;;
17790;SDS011;9019;48.132;-1.210;2023-09-19T00:43:32;7.80;;;4.33;;
17790;SDS011;9019;48.132;-1.210;2023-09-19T00:45:59;7.37;;;3.90;;
17790;SDS011;9019;48.132;-1.210;2023-09-19T00:48:28;7.87;;;3.30;;
17790;SDS011;9019;48.132;-1.210;2023-09-19T00:50:56;7.00;;;2.87;;
17790;SDS011;9019;48.132;-1.210;2023-09-19T00:53:27;9.57;;;3.00;;
17790;SDS011;9019;48.132;-1.210;2023-09-19T00:55:54;7.40;;;2.77;;
17790;SDS011;9019;48.132;-1.210;2023-09-19T00:58:21;7.93;;;2.83;;
17790;SDS011;9019;48.132;-1.210;2023-09-19T01:00:49;7.83;;;3.00;;
17790;SDS011;9019;48.132;-1.210;2023-09-19T01:03:16;7.73;;;3.17;;
17790;SDS011;9019;48.132;-1.210;2023-09-19T01:05:44;7.47;;;3.20;;
17790;SDS011;9019;48.132;-1.210;2023-09-19T01:08:11;9.20;;;3.07;;
17790;SDS011;9019;48.132;-1.210;2023-09-19T01:10:43;6.57;;;2.40;;
17790;SDS011;9019;48.132;-1.210;2023-09-19T01:13:13;5.93;;;2.70;;
17790;SDS011;9019;48.132;-1.210;2023-09-19T01:15:44;4.90;;;2.57;;
17790;SDS011;9019;48.132;-1.210;2023-09-19T01:18:20;6.20;;;2.33;;
17790;SDS011;9019;48.132;-1.210;2023-09-19T01:20:52;6.03;;;2.60;;
17790;SDS011;9019;48.132;-1.210;2023-09-19T01:23:21;6.17;;;2.40;;
17790;SDS011;9019;48.132;-1.210;2023-09-19T01:25:56;6.37;;;2.03;;
17790;SDS011;9019;48.132;-1.210;2023-09-19T01:28:32;5.90;;;2.60;;
17790;SDS011;9019;48.132;-1.210;2023-09-19T01:31:06;7.40;;;2.33;;
17790;SDS011;9019;48.132;-1.210;2023-09-19T01:33:54;5.73;;;2.40;;
17790;SDS011;9019;48.132;-1.210;2023-09-19T01:36:29;6.73;;;2.33;;
17790;SDS011;9019;48.132;-1.210;2023-09-19T01:38:59;8.60;;;2.57;;
17790;SDS011;9019;48.132;-1.210;2023-09-19T01:41:33;6.37;;;2.37;;
17790;SDS011;9019;48.132;-1.210;2023-09-19T01:44:06;5.90;;;2.17;;
17790;SDS011;9019;48.132;-1.210;2023-09-19T01:46:36;7.97;;;2.20;;
17790;SDS011;9019;48.132;-1.210;2023-09-19T01:49:08;10.77;;;2.17;;
17790;SDS011;9019;48.132;-1.210;2023-09-19T01:54:23;6.03;;;2.20;;
17790;SDS011;9019;48.132;-1.210;2023-09-19T01:56:55;8.03;;;2.60;;
17790;SDS011;9019;48.132;-1.210;2023-09-19T01:59:24;8.73;;;2.10;;
17790;SDS011;9019;48.132;-1.210;2023-09-19T02:01:54;8.40;;;2.50;;
17790;SDS011;9019;48.132;-1.210;2023-09-19T02:04:21;9.70;;;2.40;;
17790;SDS011;9019;48.132;-1.210;2023-09-19T02:06:48;7.13;;;2.33;;
17790;SDS011;9019;48.132;-1.210;2023-09-19T02:09:16;9.37;;;2.47;;
17790;SDS011;9019;48.132;-1.210;2023-09-19T02:11:43;12.47;;;2.00;;
17790;SDS011;9019;48.132;-1.210;2023-09-19T02:14:11;7.40;;;2.30;;
17790;SDS011;9019;48.132;-1.210;2023-09-19T02:16:40;9.40;;;2.10;;
17790;SDS011;9019;48.132;-1.210;2023-09-19T02:19:08;7.87;;;1.90;;
17790;SDS011;9019;48.132;-1.210;2023-09-19T02:21:35;8.63;;;2.40;;
17790;SDS011;9019;48.132;-1.210;2023-09-19T02:24:05;8.53;;;2.10;;
17790;SDS011;9019;48.132;-1.210;2023-09-19T02:26:35;4.30;;;1.70;;
17790;SDS011;9019;48.132;-1.210;2023-09-19T02:29:02;7.90;;;1.87;;
17790;SDS011;9019;48.132;-1.210;2023-09-19T02:31:29;7.73;;;2.27;;
17790;SDS011;9019;48.132;-1.210;2023-09-19T02:33:57;6.30;;;2.23;;
17790;SDS011;9019;48.132;-1.210;2023-09-19T02:36:26;5.80;;;1.90;;
17790;SDS011;9019;48.132;-1.210;2023-09-19T02:38:55;9.97;;;2.40;;
17790;SDS011;9019;48.132;-1.210;2023-09-19T02:41:22;7.73;;;2.67;;
17790;SDS011;9019;48.132;-1.210;2023-09-19T02:43:49;5.77;;;2.20;;
17790;SDS011;9019;48.132;-1.210;2023-09-19T02:46:17;8.77;;;2.20;;
17790;SDS011;9019;48.132;-1.210;2023-09-19T02:48:44;7.17;;;2.40;;
17790;SDS011;9019;48.132;-1.210;2023-09-19T02:51:12;10.37;;;2.53;;
17790;SDS011;9019;48.132;-1.210;2023-09-19T02:53:41;9.30;;;1.90;;
17790;SDS011;9019;48.132;-1.210;2023-09-19T02:56:08;8.83;;;2.27;;
17790;SDS011;9019;48.132;-1.210;2023-09-19T02:58:38;7.70;;;1.93;;
17790;SDS011;9019;48.132;-1.210;2023-09-19T03:01:09;11.27;;;2.27;;
17790;SDS011;9019;48.132;-1.210;2023-09-19T03:03:37;14.40;;;2.70;;
17790;SDS011;9019;48.132;-1.210;2023-09-19T03:06:06;10.53;;;2.33;;
17790;SDS011;9019;48.132;-1.210;2023-09-19T03:08:34;7.70;;;2.27;;
17790;SDS011;9019;48.132;-1.210;2023-09-19T03:11:04;7.40;;;2.20;;
17790;SDS011;9019;48.132;-1.210;2023-09-19T03:13:32;8.90;;;2.33;;
17790;SDS011;9019;48.132;-1.210;2023-09-19T03:16:01;8.10;;;2.17;;
17790;SDS011;9019;48.132;-1.210;2023-09-19T03:18:30;13.07;;;2.13;;
17790;SDS011;9019;48.132;-1.210;2023-09-19T03:20:58;8.60;;;1.90;;
17790;SDS011;9019;48.132;-1.210;2023-09-19T03:23:26;7.87;;;2.10;;
17790;SDS011;9019;48.132;-1.210;2023-09-19T03:25:53;9.57;;;2.20;;
17790;SDS011;9019;48.132;-1.210;2023-09-19T03:28:22;7.20;;;2.30;;
17790;SDS011;9019;48.132;-1.210;2023-09-19T03:30:59;9.37;;;2.70;;
17790;SDS011;9019;48.132;-1.210;2023-09-19T03:33:26;7.93;;;2.00;;
17790;SDS011;9019;48.132;-1.210;2023-09-19T03:35:53;8.83;;;2.33;;
17790;SDS011;9019;48.132;-1.210;2023-09-19T03:38:23;7.77;;;2.17;;
17790;SDS011;9019;48.132;-1.210;2023-09-19T03:40:50;7.80;;;2.10;;
17790;SDS011;9019;48.132;-1.210;2023-09-19T03:43:18;10.00;;;2.60;;
17790;SDS011;9019;48.132;-1.210;2023-09-19T03:45:46;10.67;;;2.47;;
17790;SDS011;9019;48.132;-1.210;2023-09-19T03:48:15;6.27;;;2.00;;
17790;SDS011;9019;48.132;-1.210;2023-09-19T03:50:43;12.67;;;2.70;;
17790;SDS011;9019;48.132;-1.210;2023-09-19T03:53:10;7.87;;;2.23;;
17790;SDS011;9019;48.132;-1.210;2023-09-19T03:55:37;7.57;;;2.23;;
17790;SDS011;9019;48.132;-1.210;2023-09-19T03:58:05;11.83;;;2.43;;
17790;SDS011;9019;48.132;-1.210;2023-09-19T04:00:32;11.63;;;2.50;;
17790;SDS011;9019;48.132;-1.210;2023-09-19T04:03:01;8.00;;;2.30;;
17790;SDS011;9019;48.132;-1.210;2023-09-19T04:05:31;9.83;;;2.47;;
17790;SDS011;9019;48.132;-1.210;2023-09-19T04:07:59;8.27;;;2.50;;
17790;SDS011;9019;48.132;-1.210;2023-09-19T04:10:26;11.10;;;2.13;;
17790;SDS011;9019;48.132;-1.210;2023-09-19T04:12:53;10.27;;;2.13;;
17790;SDS011;9019;48.132;-1.210;2023-09-19T04:15:20;9.73;;;2.20;;
17790;SDS011;9019;48.132;-1.210;2023-09-19T04:17:48;9.50;;;2.30;;
17790;SDS011;9019;48.132;-1.210;2023-09-19T04:20:17;15.30;;;2.70;;
17790;SDS011;9019;48.132;-1.210;2023-09-19T04:22:44;12.40;;;2.40;;
17790;SDS011;9019;48.132;-1.210;2023-09-19T04:25:12;6.27;;;2.00;;
17790;SDS011;9019;48.132;-1.210;2023-09-19T04:27:39;9.77;;;2.23;;
17790;SDS011;9019;48.132;-1.210;2023-09-19T04:30:07;12.57;;;2.50;;
17790;SDS011;9019;48.132;-1.210;2023-09-19T04:32:37;11.87;;;2.60;;
17790;SDS011;9019;48.132;-1.210;2023-09-19T04:35:05;8.80;;;2.10;;
17790;SDS011;9019;48.132;-1.210;2023-09-19T04:37:35;7.63;;;2.03;;
17790;SDS011;9019;48.132;-1.210;2023-09-19T04:40:04;10.20;;;2.30;;
17790;SDS011;9019;48.132;-1.210;2023-09-19T04:42:32;7.23;;;1.90;;
17790;SDS011;9019;48.132;-1.210;2023-09-19T04:45:00;7.53;;;2.40;;
17790;SDS011;9019;48.132;-1.210;2023-09-19T04:47:28;8.03;;;2.10;;
17790;SDS011;9019;48.132;-1.210;2023-09-19T04:49:55;10.03;;;2.20;;
17790;SDS011;9019;48.132;-1.210;2023-09-19T04:52:24;8.37;;;2.20;;
17790;SDS011;9019;48.132;-1.210;2023-09-19T04:54:52;10.70;;;2.47;;
17790;SDS011;9019;48.132;-1.210;2023-09-19T04:57:20;9.50;;;2.43;;
17790;SDS011;9019;48.132;-1.210;2023-09-19T04:59:48;10.30;;;2.63;;
17790;SDS011;9019;48.132;-1.210;2023-09-19T05:02:15;10.73;;;2.07;;
17790;SDS011;9019;48.132;-1.210;2023-09-19T05:04:42;10.33;;;2.40;;
17790;SDS011;9019;48.132;-1.210;2023-09-19T05:07:09;10.53;;;2.30;;
17790;SDS011;9019;48.132;-1.210;2023-09-19T05:09:37;8.20;;;2.13;;
17790;SDS011;9019;48.132;-1.210;2023-09-19T05:12:06;11.83;;;2.50;;
17790;SDS011;9019;48.132;-1.210;2023-09-19T05:14:35;11.47;;;2.37;;
17790;SDS011;9019;48.132;-1.210;2023-09-19T05:17:03;9.70;;;2.00;;
17790;SDS011;9019;48.132;-1.210;2023-09-19T05:19:30;11.57;;;2.77;;
17790;SDS011;9019;48.132;-1.210;2023-09-19T05:21:59;9.27;;;2.30;;
17790;SDS011;9019;48.132;-1.210;2023-09-19T05:24:26;8.67;;;2.63;;
17790;SDS011;9019;48.132;-1.210;2023-09-19T05:26:53;16.33;;;2.47;;
17790;SDS011;9019;48.132;-1.210;2023-09-19T05:29:23;9.93;;;2.33;;
17790;SDS011;9019;48.132;-1.210;2023-09-19T05:31:50;9.80;;;2.40;;
17790;SDS011;9019;48.132;-1.210;2023-09-19T05:34:19;10.80;;;2.77;;
17790;SDS011;9019;48.132;-1.210;2023-09-19T05:36:47;10.60;;;2.33;;
17790;SDS011;9019;48.132;-1.210;2023-09-19T05:39:15;10.97;;;2.10;;
17790;SDS011;9019;48.132;-1.210;2023-09-19T05:41:42;10.13;;;2.37;;
17790;SDS011;9019;48.132;-1.210;2023-09-19T05:44:10;11.43;;;2.70;;
17790;SDS011;9019;48.132;-1.210;2023-09-19T05:46:38;11.37;;;2.47;;
17790;SDS011;9019;48.132;-1.210;2023-09-19T05:49:05;10.97;;;2.37;;
17790;SDS011;9019;48.132;-1.210;2023-09-19T05:51:33;9.40;;;2.13;;
17790;SDS011;9019;48.132;-1.210;2023-09-19T05:54:00;13.50;;;2.73;;
17790;SDS011;9019;48.132;-1.210;2023-09-19T05:56:29;13.03;;;2.80;;
17790;SDS011;9019;48.132;-1.210;2023-09-19T05:58:57;11.10;;;2.60;;
17790;SDS011;9019;48.132;-1.210;2023-09-19T06:01:25;10.90;;;2.53;;
17790;SDS011;9019;48.132;-1.210;2023-09-19T06:03:53;11.93;;;3.10;;
17790;SDS011;9019;48.132;-1.210;2023-09-19T06:06:21;12.73;;;2.80;;
17790;SDS011;9019;48.132;-1.210;2023-09-19T06:08:49;10.23;;;2.50;;
17790;SDS011;9019;48.132;-1.210;2023-09-19T06:11:16;9.73;;;2.60;;
17790;SDS011;9019;48.132;-1.210;2023-09-19T06:13:45;11.63;;;2.57;;
17790;SDS011;9019;48.132;-1.210;2023-09-19T06:16:13;13.63;;;2.87;;
17790;SDS011;9019;48.132;-1.210;2023-09-19T06:18:40;10.67;;;2.10;;
17790;SDS011;9019;48.132;-1.210;2023-09-19T06:21:09;12.37;;;1.93;;
17790;SDS011;9019;48.132;-1.210;2023-09-19T06:23:37;9.40;;;2.33;;
17790;SDS011;9019;48.132;-1.210;2023-09-19T06:26:04;9.77;;;2.53;;
17790;SDS011;9019;48.132;-1.210;2023-09-19T06:28:33;11.43;;;2.57;;
17790;SDS011;9019;48.132;-1.210;2023-09-19T06:31:01;8.27;;;1.90;;
17790;SDS011;9019;48.132;-1.210;2023-09-19T06:33:33;12.17;;;2.43;;
17790;SDS011;9019;48.132;-1.210;2023-09-19T06:36:00;11.17;;;2.50;;
17790;SDS011;9019;48.132;-1.210;2023-09-19T06:38:31;8.40;;;2.50;;
17790;SDS011;9019;48.132;-1.210;2023-09-19T06:40:59;9.40;;;2.37;;
17790;SDS011;9019;48.132;-1.210;2023-09-19T06:43:29;12.47;;;2.33;;
17790;SDS011;9019;48.132;-1.210;2023-09-19T06:45:57;9.20;;;2.03;;
17790;SDS011;9019;48.132;-1.210;2023-09-19T06:48:25;11.50;;;2.30;;
17790;SDS011;9019;48.132;-1.210;2023-09-19T06:50:54;12.27;;;2.50;;
17790;SDS011;9019;48.132;-1.210;2023-09-19T06:53:23;10.87;;;2.80;;
17790;SDS011;9019;48.132;-1.210;2023-09-19T06:55:52;8.00;;;2.40;;
17790;SDS011;9019;48.132;-1.210;2023-09-19T06:58:19;8.23;;;1.83;;
17790;SDS011;9019;48.132;-1.210;2023-09-19T07:00:46;11.13;;;2.13;;
17790;SDS011;9019;48.132;-1.210;2023-09-19T07:03:15;12.07;;;2.53;;
17790;SDS011;9019;48.132;-1.210;2023-09-19T07:05:43;12.63;;;2.85;;
17790;SDS011;9019;48.132;-1.210;2023-09-19T07:08:12;12.20;;;2.47;;
17790;SDS011;9019;48.132;-1.210;2023-09-19T07:10:40;7.70;;;1.92;;
17790;SDS011;9019;48.132;-1.210;2023-09-19T07:13:15;10.80;;;2.22;;
17790;SDS011;9019;48.132;-1.210;2023-09-19T07:15:43;11.30;;;2.20;;
17790;SDS011;9019;48.132;-1.210;2023-09-19T07:18:12;8.43;;;2.00;;
17790;SDS011;9019;48.132;-1.210;2023-09-19T07:20:41;11.73;;;2.30;;
17790;SDS011;9019;48.132;-1.210;2023-09-19T07:23:10;11.85;;;2.17;;
17790;SDS011;9019;48.132;-1.210;2023-09-19T07:25:40;7.78;;;1.95;;
17790;SDS011;9019;48.132;-1.210;2023-09-19T07:28:07;7.57;;;2.20;;
17790;SDS011;9019;48.132;-1.210;2023-09-19T07:30:37;6.75;;;1.88;;
17790;SDS011;9019;48.132;-1.210;2023-09-19T07:33:05;6.85;;;1.98;;
17790;SDS011;9019;48.132;-1.210;2023-09-19T07:35:32;9.63;;;2.22;;
17790;SDS011;9019;48.132;-1.210;2023-09-19T07:38:00;11.45;;;2.50;;
17790;SDS011;9019;48.132;-1.210;2023-09-19T07:40:27;12.18;;;2.08;;
17790;SDS011;9019;48.132;-1.210;2023-09-19T07:42:55;7.40;;;1.95;;
17790;SDS011;9019;48.132;-1.210;2023-09-19T07:45:26;6.93;;;2.28;;
17790;SDS011;9019;48.132;-1.210;2023-09-19T07:47:56;12.15;;;2.03;;
17790;SDS011;9019;48.132;-1.210;2023-09-19T07:50:25;10.80;;;2.03;;
17790;SDS011;9019;48.132;-1.210;2023-09-19T07:52:53;11.15;;;2.45;;
17790;SDS011;9019;48.132;-1.210;2023-09-19T07:55:21;10.18;;;2.30;;
17790;SDS011;9019;48.132;-1.210;2023-09-19T07:57:50;6.82;;;1.98;;
17790;SDS011;9019;48.132;-1.210;2023-09-19T08:00:17;10.52;;;2.00;;
17790;SDS011;9019;48.132;-1.210;2023-09-19T08:02:45;9.10;;;2.22;;
17790;SDS011;9019;48.132;-1.210;2023-09-19T08:05:14;9.77;;;2.10;;
17790;SDS011;9019;48.132;-1.210;2023-09-19T08:07:43;9.18;;;2.20;;
17790;SDS011;9019;48.132;-1.210;2023-09-19T08:10:13;7.50;;;2.10;;
17790;SDS011;9019;48.132;-1.210;2023-09-19T08:12:41;7.88;;;2.08;;
17790;SDS011;9019;48.132;-1.210;2023-09-19T08:15:11;12.70;;;1.95;;
17790;SDS011;9019;48.132;-1.210;2023-09-19T08:17:38;11.88;;;2.50;;
17790;SDS011;9019;48.132;-1.210;2023-09-19T08:20:06;9.02;;;1.77;;
17790;SDS011;9019;48.132;-1.210;2023-09-19T08:22:42;5.30;;;2.10;;
17790;SDS011;9019;48.132;-1.210;2023-09-19T08:25:11;7.55;;;1.77;;
17790;SDS011;9019;48.132;-1.210;2023-09-19T08:27:38;10.27;;;1.85;;
17790;SDS011;9019;48.132;-1.210;2023-09-19T08:30:06;6.55;;;1.90;;
17790;SDS011;9019;48.132;-1.210;2023-09-19T08:32:33;9.73;;;2.08;;
17790;SDS011;9019;48.132;-1.210;2023-09-19T08:35:01;8.15;;;1.77;;
17790;SDS011;9019;48.132;-1.210;2023-09-19T08:37:29;5.78;;;1.75;;
17790;SDS011;9019;48.132;-1.210;2023-09-19T08:39:59;9.73;;;1.65;;
17790;SDS011;9019;48.132;-1.210;2023-09-19T08:42:26;9.73;;;2.20;;
17790;SDS011;9019;48.132;-1.210;2023-09-19T08:44:54;8.60;;;1.73;;
17790;SDS011;9019;48.132;-1.210;2023-09-19T08:47:29;8.15;;;1.63;;
17790;SDS011;9019;48.132;-1.210;2023-09-19T08:50:01;10.45;;;1.98;;
17790;SDS011;9019;48.132;-1.210;2023-09-19T08:52:41;8.82;;;2.03;;
17790;SDS011;9019;48.132;-1.210;2023-09-19T08:55:11;10.75;;;1.90;;
17790;SDS011;9019;48.132;-1.210;2023-09-19T08:57:45;9.73;;;1.52;;
17790;SDS011;9019;48.132;-1.210;2023-09-19T09:00:14;11.20;;;2.47;;
17790;SDS011;9019;48.132;-1.210;2023-09-19T09:02:43;7.85;;;1.80;;
17790;SDS011;9019;48.132;-1.210;2023-09-19T09:05:12;7.10;;;1.70;;
17790;SDS011;9019;48.132;-1.210;2023-09-19T09:07:41;7.53;;;1.63;;
17790;SDS011;9019;48.132;-1.210;2023-09-19T09:10:10;6.95;;;1.58;;
17790;SDS011;9019;48.132;-1.210;2023-09-19T09:12:38;9.77;;;1.73;;
17790;SDS011;9019;48.132;-1.210;2023-09-19T09:15:06;8.35;;;1.50;;
17790;SDS011;9019;48.132;-1.210;2023-09-19T09:17:36;10.60;;;2.30;;
17790;SDS011;9019;48.132;-1.210;2023-09-19T09:20:04;6.85;;;1.65;;
17790;SDS011;9019;48.132;-1.210;2023-09-19T09:22:33;7.88;;;1.60;;
17790;SDS011;9019;48.132;-1.210;2023-09-19T09:25:01;7.70;;;1.92;;
17790;SDS011;9019;48.132;-1.210;2023-09-19T09:27:31;5.28;;;2.15;;
17790;SDS011;9019;48.132;-1.210;2023-09-19T09:29:59;11.05;;;2.58;;
17790;SDS011;9019;48.132;-1.210;2023-09-19T09:32:27;8.13;;;2.70;;
17790;SDS011;9019;48.132;-1.210;2023-09-19T09:34:57;7.95;;;2.58;;
17790;SDS011;9019;48.132;-1.210;2023-09-19T09:37:24;9.73;;;2.65;;
17790;SDS011;9019;48.132;-1.210;2023-09-19T09:39:53;10.35;;;2.65;;
17790;SDS011;9019;48.132;-1.210;2023-09-19T09:42:32;10.18;;;2.55;;
17790;SDS011;9019;48.132;-1.210;2023-09-19T09:45:12;5.63;;;1.85;;
17790;SDS011;9019;48.132;-1.210;2023-09-19T09:47:44;7.07;;;2.05;;
17790;SDS011;9019;48.132;-1.210;2023-09-19T09:50:27;7.65;;;2.15;;
17790;SDS011;9019;48.132;-1.210;2023-09-19T09:53:02;6.75;;;1.95;;
17790;SDS011;9019;48.132;-1.210;2023-09-19T09:55:39;7.30;;;2.17;;
17790;SDS011;9019;48.132;-1.210;2023-09-19T09:58:25;7.18;;;2.10;;
17790;SDS011;9019;48.132;-1.210;2023-09-19T10:00:54;11.13;;;3.70;;
17790;SDS011;9019;48.132;-1.210;2023-09-19T10:03:30;8.95;;;3.75;;
17790;SDS011;9019;48.132;-1.210;2023-09-19T10:05:59;8.10;;;2.30;;
17790;SDS011;9019;48.132;-1.210;2023-09-19T10:08:36;6.88;;;1.92;;
17790;SDS011;9019;48.132;-1.210;2023-09-19T10:11:15;7.82;;;2.10;;
17790;SDS011;9019;48.132;-1.210;2023-09-19T10:13:45;7.18;;;1.80;;
17790;SDS011;9019;48.132;-1.210;2023-09-19T10:16:13;5.65;;;1.58;;
17790;SDS011;9019;48.132;-1.210;2023-09-19T10:18:40;4.55;;;1.80;;
17790;SDS011;9019;48.132;-1.210;2023-09-19T10:21:09;6.82;;;2.00;;
17790;SDS011;9019;48.132;-1.210;2023-09-19T10:23:37;8.90;;;1.98;;
17790;SDS011;9019;48.132;-1.210;2023-09-19T10:26:05;6.38;;;2.00;;
17790;SDS011;9019;48.132;-1.210;2023-09-19T10:28:34;6.15;;;2.00;;
17790;SDS011;9019;48.132;-1.210;2023-09-19T10:31:04;7.50;;;2.15;;
17790;SDS011;9019;48.132;-1.210;2023-09-19T10:33:35;8.15;;;2.08;;
17790;SDS011;9019;48.132;-1.210;2023-09-19T10:36:04;4.90;;;1.67;;
17790;SDS011;9019;48.132;-1.210;2023-09-19T10:38:31;11.32;;;2.17;;
17790;SDS011;9019;48.132;-1.210;2023-09-19T10:41:00;6.68;;;1.73;;
17790;SDS011;9019;48.132;-1.210;2023-09-19T10:43:29;6.88;;;1.90;;
17790;SDS011;9019;48.132;-1.210;2023-09-19T10:45:59;7.75;;;2.00;;
17790;SDS011;9019;48.132;-1.210;2023-09-19T10:48:30;7.88;;;2.25;;
17790;SDS011;9019;48.132;-1.210;2023-09-19T10:51:00;5.80;;;2.08;;
17790;SDS011;9019;48.132;-1.210;2023-09-19T10:53:29;8.52;;;2.13;;
17790;SDS011;9019;48.132;-1.210;2023-09-19T10:55:59;7.15;;;2.28;;
17790;SDS011;9019;48.132;-1.210;2023-09-19T10:58:35;5.72;;;2.28;;
17790;SDS011;9019;48.132;-1.210;2023-09-19T11:01:05;4.72;;;2.05;;
17790;SDS011;9019;48.132;-1.210;2023-09-19T11:03:34;7.05;;;2.28;;
17790;SDS011;9019;48.132;-1.210;2023-09-19T11:06:09;9.40;;;2.30;;
17790;SDS011;9019;48.132;-1.210;2023-09-19T11:11:44;7.93;;;2.22;;
17790;SDS011;9019;48.132;-1.210;2023-09-19T11:14:30;7.25;;;2.10;;
17790;SDS011;9019;48.132;-1.210;2023-09-19T11:23:18;5.63;;;2.20;;
17790;SDS011;9019;48.132;-1.210;2023-09-19T11:25:48;8.18;;;2.55;;
17790;SDS011;9019;48.132;-1.210;2023-09-19T11:30:59;5.78;;;1.85;;
17790;SDS011;9019;48.132;-1.210;2023-09-19T11:33:47;9.80;;;2.90;;
17790;SDS011;9019;48.132;-1.210;2023-09-19T11:36:15;7.25;;;2.30;;
17790;SDS011;9019;48.132;-1.210;2023-09-19T11:41:37;7.88;;;2.90;;
17790;SDS011;9019;48.132;-1.210;2023-09-19T11:46:52;7.15;;;2.63;;
17790;SDS011;9019;48.132;-1.210;2023-09-19T11:49:23;6.40;;;2.22;;
17790;SDS011;9019;48.132;-1.210;2023-09-19T11:51:55;9.82;;;2.22;;
17790;SDS011;9019;48.132;-1.210;2023-09-19T11:54:22;6.95;;;2.38;;
17790;SDS011;9019;48.132;-1.210;2023-09-19T11:56:54;7.68;;;2.28;;
17790;SDS011;9019;48.132;-1.210;2023-09-19T11:59:22;6.78;;;2.30;;
17790;SDS011;9019;48.132;-1.210;2023-09-19T12:01:53;7.70;;;2.53;;
17790;SDS011;9019;48.132;-1.210;2023-09-19T12:04:30;6.65;;;1.98;;
17790;SDS011;9019;48.132;-1.210;2023-09-19T12:07:00;7.72;;;2.10;;
17790;SDS011;9019;48.132;-1.210;2023-09-19T12:09:27;9.05;;;2.42;;
17790;SDS011;9019;48.132;-1.210;2023-09-19T12:11:56;5.47;;;2.30;;
17790;SDS011;9019;48.132;-1.210;2023-09-19T12:14:24;6.18;;;2.30;;
17790;SDS011;9019;48.132;-1.210;2023-09-19T12:16:53;6.15;;;1.85;;
17790;SDS011;9019;48.132;-1.210;2023-09-19T12:19:21;6.35;;;2.33;;
17790;SDS011;9019;48.132;-1.210;2023-09-19T12:21:55;5.25;;;2.25;;
17790;SDS011;9019;48.132;-1.210;2023-09-19T12:24:24;7.30;;;2.28;;
17790;SDS011;9019;48.132;-1.210;2023-09-19T12:26:59;5.57;;;2.47;;
17790;SDS011;9019;48.132;-1.210;2023-09-19T12:29:29;4.13;;;1.95;;
17790;SDS011;9019;48.132;-1.210;2023-09-19T12:31:57;5.75;;;2.17;;
17790;SDS011;9019;48.132;-1.210;2023-09-19T12:34:28;4.88;;;1.92;;
17790;SDS011;9019;48.132;-1.210;2023-09-19T12:37:08;5.88;;;2.25;;
17790;SDS011;9019;48.132;-1.210;2023-09-19T12:39:44;13.00;;;2.45;;
17790;SDS011;9019;48.132;-1.210;2023-09-19T12:42:15;7.63;;;2.40;;
17790;SDS011;9019;48.132;-1.210;2023-09-19T12:44:43;4.03;;;1.80;;
17790;SDS011;9019;48.132;-1.210;2023-09-19T12:47:12;5.90;;;2.28;;
17790;SDS011;9019;48.132;-1.210;2023-09-19T12:52:31;4.57;;;2.10;;
17790;SDS011;9019;48.132;-1.210;2023-09-19T12:55:01;6.13;;;2.30;;
17790;SDS011;9019;48.132;-1.210;2023-09-19T12:57:31;6.93;;;2.13;;
17790;SDS011;9019;48.132;-1.210;2023-09-19T12:59:59;7.45;;;1.90;;
17790;SDS011;9019;48.132;-1.210;2023-09-19T13:02:27;7.15;;;1.83;;
17790;SDS011;9019;48.132;-1.210;2023-09-19T13:04:54;7.47;;;2.15;;
17790;SDS011;9019;48.132;-1.210;2023-09-19T13:07:41;6.32;;;2.00;;
17790;SDS011;9019;48.132;-1.210;2023-09-19T13:10:12;7.82;;;2.28;;
17790;SDS011;9019;48.132;-1.210;2023-09-19T13:12:43;9.63;;;2.30;;
17790;SDS011;9019;48.132;-1.210;2023-09-19T13:15:13;6.32;;;1.70;;
17790;SDS011;9019;48.132;-1.210;2023-09-19T13:17:45;4.55;;;2.00;;
17790;SDS011;9019;48.132;-1.210;2023-09-19T13:20:22;6.90;;;2.05;;
17790;SDS011;9019;48.132;-1.210;2023-09-19T13:22:54;7.07;;;2.08;;
17790;SDS011;9019;48.132;-1.210;2023-09-19T13:25:24;6.15;;;1.98;;
17790;SDS011;9019;48.132;-1.210;2023-09-19T13:27:57;5.97;;;2.10;;
17790;SDS011;9019;48.132;-1.210;2023-09-19T13:30:25;5.82;;;1.90;;
17790;SDS011;9019;48.132;-1.210;2023-09-19T13:33:04;6.20;;;2.03;;
17790;SDS011;9019;48.132;-1.210;2023-09-19T13:35:31;6.07;;;1.98;;
17790;SDS011;9019;48.132;-1.210;2023-09-19T13:37:59;6.30;;;2.22;;
17790;SDS011;9019;48.132;-1.210;2023-09-19T13:40:26;7.20;;;1.88;;
17790;SDS011;9019;48.132;-1.210;2023-09-19T13:42:57;5.43;;;2.08;;
17790;SDS011;9019;48.132;-1.210;2023-09-19T13:45:24;6.20;;;2.03;;
17790;SDS011;9019;48.132;-1.210;2023-09-19T13:47:52;6.90;;;2.03;;
17790;SDS011;9019;48.132;-1.210;2023-09-19T13:50:19;7.60;;;2.28;;
17790;SDS011;9019;48.132;-1.210;2023-09-19T13:52:49;5.38;;;2.00;;
17790;SDS011;9019;48.132;-1.210;2023-09-19T13:55:18;5.05;;;1.70;;
17790;SDS011;9019;48.132;-1.210;2023-09-19T13:57:45;8.43;;;2.13;;
17790;SDS011;9019;48.132;-1.210;2023-09-19T14:00:16;6.50;;;1.95;;
17790;SDS011;9019;48.132;-1.210;2023-09-19T14:02:44;7.38;;;2.20;;
17790;SDS011;9019;48.132;-1.210;2023-09-19T14:05:13;6.97;;;2.17;;
17790;SDS011;9019;48.132;-1.210;2023-09-19T14:07:41;6.05;;;1.80;;
17790;SDS011;9019;48.132;-1.210;2023-09-19T14:10:10;5.72;;;2.20;;
17790;SDS011;9019;48.132;-1.210;2023-09-19T14:12:37;5.30;;;2.20;;
17790;SDS011;9019;48.132;-1.210;2023-09-19T14:15:06;7.45;;;2.53;;
17790;SDS011;9019;48.132;-1.210;2023-09-19T14:17:34;7.05;;;2.47;;
17790;SDS011;9019;48.132;-1.210;2023-09-19T14:20:02;6.30;;;2.22;;
17790;SDS011;9019;48.132;-1.210;2023-09-19T14:22:31;6.43;;;2.35;;
17790;SDS011;9019;48.132;-1.210;2023-09-19T14:25:00;6.88;;;2.30;;
17790;SDS011;9019;48.132;-1.210;2023-09-19T14:27:27;7.40;;;2.20;;
17790;SDS011;9019;48.132;-1.210;2023-09-19T14:29:54;6.07;;;2.22;;
17790;SDS011;9019;48.132;-1.210;2023-09-19T14:32:22;6.38;;;2.42;;
17790;SDS011;9019;48.132;-1.210;2023-09-19T14:34:50;6.70;;;2.35;;
17790;SDS011;9019;48.132;-1.210;2023-09-19T14:37:18;6.95;;;2.47;;
17790;SDS011;9019;48.132;-1.210;2023-09-19T14:39:46;7.63;;;2.40;;
17790;SDS011;9019;48.132;-1.210;2023-09-19T14:42:13;9.48;;;2.47;;
17790;SDS011;9019;48.132;-1.210;2023-09-19T14:44:42;6.60;;;2.40;;
17790;SDS011;9019;48.132;-1.210;2023-09-19T14:47:10;8.32;;;2.35;;
17790;SDS011;9019;48.132;-1.210;2023-09-19T14:49:38;7.55;;;2.40;;
17790;SDS011;9019;48.132;-1.210;2023-09-19T14:52:08;5.70;;;2.10;;
17790;SDS011;9019;48.132;-1.210;2023-09-19T14:54:37;6.25;;;2.58;;
17790;SDS011;9019;48.132;-1.210;2023-09-19T14:57:06;9.55;;;3.10;;
17790;SDS011;9019;48.132;-1.210;2023-09-19T14:59:33;6.65;;;2.70;;
17790;SDS011;9019;48.132;-1.210;2023-09-19T15:02:02;7.57;;;2.75;;
17790;SDS011;9019;48.132;-1.210;2023-09-19T15:04:29;7.55;;;2.90;;
17790;SDS011;9019;48.132;-1.210;2023-09-19T15:06:57;8.63;;;3.40;;
17790;SDS011;9019;48.132;-1.210;2023-09-19T15:09:26;6.68;;;2.95;;
17790;SDS011;9019;48.132;-1.210;2023-09-19T15:11:55;6.82;;;3.10;;
17790;SDS011;9019;48.132;-1.210;2023-09-19T15:14:22;7.90;;;3.25;;
17790;SDS011;9019;48.132;-1.210;2023-09-19T15:16:50;7.45;;;2.80;;
17790;SDS011;9019;48.132;-1.210;2023-09-19T15:19:17;7.10;;;3.03;;
17790;SDS011;9019;48.132;-1.210;2023-09-19T15:21:44;7.03;;;3.28;;